Time;durP1;ratioP1;P1;durP2;ratioP2;P2;SDS_P1;SDS_P2;PMS_P1;PMS_P2;Temp;Humidity;BMP_temperature;BMP_pressure;BME280_temperature;BME280_humidity;BME280_pressure;Samples;Min_cycle;Max_cycle;Signal;HPM_P1;HPM_P2
2023/09/20 00:01:19;;;;;;;;;25.40;23.40;;;;;19.06;52.04;99482.03;5050383;28;8892;-73
2023/09/20 00:03:49;;;;;;;;;21.20;19.60;;;;;19.13;52.55;99481.59;5050132;28;8861;-71
2023/09/20 00:06:18;;;;;;;;;22.60;22.60;;;;;19.18;52.56;99480.47;5049875;28;8837;-72
2023/09/20 00:08:47;;;;;;;;;19.60;18.80;;;;;19.21;51.25;99477.63;5048703;28;8865;-71
2023/09/20 00:11:18;;;;;;;;;21.20;21.20;;;;;19.26;51.77;99484.41;5048760;28;8922;-73
2023/09/20 00:13:48;;;;;;;;;23.00;21.20;;;;;19.30;52.00;99479.78;5049786;28;8895;-73
2023/09/20 00:16:19;;;;;;;;;27.00;25.40;;;;;19.34;52.39;99478.63;5049855;28;8845;-73
2023/09/20 00:18:47;;;;;;;;;23.60;23.60;;;;;19.35;52.75;99484.81;5048612;28;8868;-72
2023/09/20 00:21:16;;;;;;;;;25.80;24.80;;;;;19.36;52.85;99486.53;5048146;28;8939;-73
2023/09/20 00:23:45;;;;;;;;;26.80;26.80;;;;;19.38;52.45;99485.50;5051536;28;8852;-72
2023/09/20 00:26:14;;;;;;;;;23.20;21.80;;;;;19.38;52.91;99487.31;5048899;28;8849;-73
2023/09/20 00:28:48;;;;;;;;;23.80;22.20;;;;;19.34;53.11;99483.97;5047127;28;8835;-73
2023/09/20 00:31:19;;;;;;;;;29.00;29.00;;;;;19.01;54.17;99477.00;5021362;28;8900;-73
2023/09/20 00:33:49;;;;;;;;;24.80;23.80;;;;;18.92;54.42;99489.00;5064881;28;9006;-72
2023/09/20 00:36:19;;;;;;;;;27.20;26.80;;;;;18.95;54.66;99485.34;5048396;28;9651;-73
2023/09/20 00:38:48;;;;;;;;;28.80;24.80;;;;;18.96;54.85;99495.03;5014134;28;8864;-73
2023/09/20 00:41:18;;;;;;;;;25.80;24.00;;;;;18.96;54.96;99491.50;5049321;28;8949;-74
2023/09/20 00:43:47;;;;;;;;;30.00;28.20;;;;;18.97;54.80;99490.56;5042363;28;8877;-73
2023/09/20 00:46:17;;;;;;;;;27.80;27.20;;;;;18.96;54.78;99488.84;4994949;28;8902;-72
2023/09/20 00:48:48;;;;;;;;;25.00;25.00;;;;;18.97;54.69;99486.09;5029402;28;8851;-72
2023/09/20 00:51:17;;;;;;;;;25.60;25.20;;;;;18.94;54.91;99478.28;5040077;28;8837;-72
2023/09/20 00:53:45;;;;;;;;;26.20;24.20;;;;;18.89;55.41;99480.34;5047893;28;8845;-73
2023/09/20 00:56:15;;;;;;;;;27.20;27.00;;;;;18.89;55.54;99481.22;5064276;28;8879;-72
2023/09/20 00:58:45;;;;;;;;;26.60;25.80;;;;;18.86;55.88;99473.38;5048183;28;8852;-71
2023/09/20 01:01:15;;;;;;;;;25.40;23.60;;;;;18.80;56.41;99475.53;4981135;28;8840;-73
2023/09/20 01:03:46;;;;;;;;;24.20;24.20;;;;;18.64;57.53;99478.16;5027770;28;8844;-73
2023/09/20 01:06:19;;;;;;;;;24.80;24.80;;;;;18.46;57.82;99472.03;5029230;28;8847;-74
2023/09/20 01:08:48;;;;;;;;;25.60;24.00;;;;;18.42;57.36;99471.38;5046852;28;8877;-72
2023/09/20 01:11:17;;;;;;;;;27.60;26.40;;;;;18.23;57.68;99471.53;5013993;28;8962;-71
2023/09/20 01:13:46;;;;;;;;;25.40;24.80;;;;;18.17;57.99;99471.81;5047736;28;8861;-73
2023/09/20 01:16:15;;;;;;;;;25.00;23.40;;;;;18.22;57.73;99475.09;5063861;28;8945;-72
2023/09/20 01:18:44;;;;;;;;;26.20;26.20;;;;;18.27;57.59;99472.19;5040249;28;8920;-73
2023/09/20 01:21:14;;;;;;;;;26.20;25.40;;;;;18.20;57.73;99477.00;5050543;28;9628;-72
2023/09/20 01:23:44;;;;;;;;;26.60;25.80;;;;;18.09;57.92;99476.72;5068449;28;8862;-73
2023/09/20 01:26:13;;;;;;;;;23.80;23.80;;;;;18.05;57.69;99475.16;5068853;28;8842;-73
2023/09/20 01:28:42;;;;;;;;;21.80;21.20;;;;;17.84;58.20;99472.66;5084223;28;8882;-73
2023/09/20 01:31:12;;;;;;;;;23.40;22.40;;;;;17.77;58.51;99468.59;5067105;28;8912;-72
2023/09/20 01:33:41;;;;;;;;;25.60;22.80;;;;;17.90;58.13;99472.31;5081132;28;8967;-73
2023/09/20 01:36:10;;;;;;;;;25.60;24.40;;;;;17.85;58.12;99478.81;5062387;28;8853;-72
2023/09/20 01:38:39;;;;;;;;;27.40;26.20;;;;;17.72;58.48;99478.59;5048291;28;8869;-73
2023/09/20 01:41:11;;;;;;;;;26.60;24.00;;;;;17.69;58.92;99474.31;5046318;28;8834;-73
2023/09/20 01:43:41;;;;;;;;;23.00;21.20;;;;;17.71;58.94;99475.09;5047047;28;8949;-72
2023/09/20 01:46:11;;;;;;;;;24.60;24.60;;;;;17.75;59.10;99481.09;5048789;28;8935;-72
2023/09/20 01:48:40;;;;;;;;;23.00;22.40;;;;;17.74;59.00;99477.59;5048136;28;8965;-71
2023/09/20 01:51:10;;;;;;;;;24.60;24.60;;;;;17.66;58.98;99477.13;5031566;28;9641;-73
2023/09/20 01:53:38;;;;;;;;;22.80;22.40;;;;;17.69;58.88;99479.63;5050180;28;8861;-73
2023/09/20 01:56:07;;;;;;;;;23.00;22.20;;;;;17.71;58.92;99485.72;5013018;28;8911;-72
2023/09/20 01:58:38;;;;;;;;;19.80;19.80;;;;;17.80;58.68;99486.16;5046852;28;8945;-73
2023/09/20 02:01:08;;;;;;;;;23.40;23.40;;;;;17.75;58.16;99483.75;4997175;28;8907;-73
2023/09/20 02:03:39;;;;;;;;;19.40;18.80;;;;;17.65;58.59;99475.41;5063120;28;8864;-75
2023/09/20 02:06:09;;;;;;;;;22.00;21.60;;;;;17.53;59.22;99471.59;5048446;28;8830;-75
2023/09/20 02:08:37;;;;;;;;;21.80;20.40;;;;;17.53;58.98;99481.34;5062102;28;8972;-73
2023/09/20 02:11:08;;;;;;;;;23.20;23.20;;;;;17.45;59.40;99481.72;5046882;28;8849;-73
2023/09/20 02:13:39;;;;;;;;;22.60;20.00;;;;;17.42;59.61;99483.69;5046729;28;8853;-73
2023/09/20 02:16:08;;;;;;;;;22.40;21.20;;;;;17.51;59.27;99484.09;5046430;28;8853;-75
2023/09/20 02:18:38;;;;;;;;;19.20;19.20;;;;;17.57;59.08;99483.78;5046384;28;8941;-74
2023/09/20 02:21:09;;;;;;;;;21.80;20.80;;;;;17.64;58.80;99489.63;5046632;28;9732;-74
2023/09/20 02:23:38;;;;;;;;;23.20;21.40;;;;;17.64;58.80;99480.81;5045517;28;8861;-74
2023/09/20 02:26:09;;;;;;;;;25.40;22.20;;;;;17.52;59.11;99476.97;5046602;28;8841;-75
2023/09/20 02:28:42;;;;;;;;;20.20;20.20;;;;;17.46;59.80;99482.63;5046953;28;8896;-76
2023/09/20 02:31:12;;;;;;;;;21.60;21.20;;;;;17.47;59.23;99486.97;5046954;28;8841;-75
2023/09/20 02:33:41;;;;;;;;;25.20;22.60;;;;;17.52;59.42;99479.63;5013719;28;9567;-74
2023/09/20 02:36:11;;;;;;;;;23.40;21.60;;;;;17.56;59.18;99484.72;5047925;28;8857;-73
2023/09/20 02:38:40;;;;;;;;;24.20;22.60;;;;;17.61;58.87;99486.25;5046373;28;8962;-72
2023/09/20 02:41:10;;;;;;;;;23.80;22.00;;;;;17.64;59.17;99480.81;5012931;28;8849;-73
2023/09/20 02:43:41;;;;;;;;;23.80;23.40;;;;;17.67;58.74;99480.66;4996372;28;8845;-75
2023/09/20 02:46:11;;;;;;;;;16.60;15.20;;;;;17.69;58.79;99489.41;5051077;28;8873;-72
2023/09/20 02:48:41;;;;;;;;;23.40;22.80;;;;;17.70;58.82;99491.13;5049581;28;8849;-73
2023/09/20 02:51:10;;;;;;;;;25.40;23.60;;;;;17.70;58.60;99494.66;5050171;28;8865;-73
2023/09/20 02:53:39;;;;;;;;;20.80;20.00;;;;;17.70;58.61;99497.31;5051744;28;8868;-73
2023/09/20 02:56:09;;;;;;;;;21.00;19.00;;;;;17.70;58.84;99499.97;5051744;28;8867;-73
2023/09/20 02:58:38;;;;;;;;;26.00;24.80;;;;;17.71;58.80;99501.66;5066501;28;8936;-74
2023/09/20 03:01:09;;;;;;;;;27.20;27.20;;;;;17.73;58.74;99507.78;5053434;28;8849;-72
2023/09/20 03:03:39;;;;;;;;;25.40;23.40;;;;;17.72;58.78;99508.72;5068631;28;8997;-72
2023/09/20 03:06:09;;;;;;;;;29.20;26.20;;;;;17.61;59.39;99504.88;5068772;28;8854;-74
2023/09/20 03:08:44;;;;;;;;;27.20;26.60;;;;;17.61;58.89;99505.75;5033401;28;8885;-73
2023/09/20 03:11:21;;;;;;;;;26.20;24.60;;;;;17.67;58.80;99508.09;5022660;28;8866;-74
2023/09/20 03:13:50;;;;;;;;;23.40;23.40;;;;;17.62;59.14;99504.78;5068111;28;8846;-76
2023/09/20 03:16:21;;;;;;;;;29.60;28.80;;;;;17.63;59.00;99503.00;5018770;28;8850;-74
2023/09/20 03:18:50;;;;;;;;;29.20;28.20;;;;;17.62;58.94;99506.59;5051529;28;8884;-73
2023/09/20 03:21:20;;;;;;;;;28.60;28.60;;;;;17.62;58.80;99504.78;5068112;28;9022;-73
2023/09/20 03:23:49;;;;;;;;;29.20;28.20;;;;;17.64;58.79;99499.41;5068098;28;8859;-73
2023/09/20 03:26:19;;;;;;;;;26.40;24.80;;;;;17.63;58.80;99505.66;5067085;28;8831;-72
2023/09/20 03:28:48;;;;;;;;;23.40;22.20;;;;;17.62;58.90;99509.25;5035139;28;9031;-73
2023/09/20 03:31:22;;;;;;;;;26.00;25.80;;;;;17.65;59.00;99507.31;5051437;28;8880;-73
2023/09/20 03:33:52;;;;;;;;;28.00;26.60;;;;;17.65;58.80;99503.81;5066243;28;8848;-74
2023/09/20 03:36:25;;;;;;;;;27.40;27.20;;;;;17.65;59.20;99511.78;5031415;28;8846;-71
2023/09/20 03:38:57;;;;;;;;;28.40;28.20;;;;;17.65;59.01;99503.81;5048184;28;8977;-72
2023/09/20 03:41:27;;;;;;;;;48.00;40.25;;;;;17.67;59.39;99494.81;5047813;28;8858;-73
2023/09/20 03:43:57;;;;;;;;;48.00;41.00;;;;;17.69;59.77;99502.69;5017372;28;8850;-74
2023/09/20 03:46:28;;;;;;;;;26.80;23.80;;;;;17.71;59.79;99500.81;5011555;28;8854;-72
2023/09/20 03:48:58;;;;;;;;;28.40;28.40;;;;;17.74;59.94;99501.53;4995090;28;8853;-72
2023/09/20 03:51:28;;;;;;;;;29.40;26.60;;;;;17.76;59.88;99494.31;4975508;28;8954;-73
2023/09/20 03:53:57;;;;;;;;;28.80;26.60;;;;;17.77;59.85;99487.19;5023900;28;9677;-73
2023/09/20 03:56:27;;;;;;;;;27.00;26.20;;;;;17.78;59.92;99484.47;5007719;28;8883;-72
2023/09/20 03:58:56;;;;;;;;;23.20;22.80;;;;;17.81;60.09;99493.22;5024122;28;8848;-71
2023/09/20 04:01:28;;;;;;;;;23.60;23.60;;;;;17.83;59.96;99486.88;5001193;28;9603;-75
2023/09/20 04:03:58;;;;;;;;;25.20;24.60;;;;;17.87;60.24;99492.91;5026846;28;8881;-73
2023/09/20 04:06:30;;;;;;;;;36.40;33.80;;;;;17.91;60.15;99491.78;5027013;28;8860;-73
2023/09/20 04:09:00;;;;;;;;;54.50;43.50;;;;;17.88;60.24;99492.81;5043818;28;8918;-73
2023/09/20 04:11:29;;;;;;;;;35.75;32.50;;;;;17.86;60.37;99483.22;5024281;28;9586;-73
2023/09/20 04:13:58;;;;;;;;;27.80;26.00;;;;;17.89;60.44;99491.91;4976570;28;8891;-71
2023/09/20 04:16:28;;;;;;;;;26.60;24.60;;;;;17.93;60.49;99495.22;4997015;28;9453;-75
2023/09/20 04:18:58;;;;;;;;;26.60;25.20;;;;;17.94;60.13;99496.97;4978517;28;8966;-75
2023/09/20 04:21:27;;;;;;;;;27.20;26.80;;;;;18.00;60.41;99503.75;5036666;28;8947;-74
2023/09/20 04:23:56;;;;;;;;;27.60;26.20;;;;;17.99;60.21;99508.22;5065358;28;8837;-73
2023/09/20 04:26:25;;;;;;;;;38.20;34.40;;;;;17.88;60.53;99513.25;5064755;28;8849;-74
2023/09/20 04:28:55;;;;;;;;;41.50;37.00;;;;;17.86;60.75;99508.00;5048841;28;8861;-73
2023/09/20 04:31:24;;;;;;;;;29.60;27.20;;;;;17.90;60.40;99514.03;5065191;28;8897;-73
2023/09/20 04:33:55;;;;;;;;;30.20;29.20;;;;;17.88;60.26;99513.25;5054890;28;8925;-73
2023/09/20 04:36:24;;;;;;;;;24.20;24.20;;;;;17.86;60.39;99513.31;5029021;28;8868;-74
2023/09/20 04:38:53;;;;;;;;;30.00;29.60;;;;;17.81;60.42;99515.34;5011557;28;8867;-73
2023/09/20 04:41:22;;;;;;;;;26.20;24.80;;;;;17.81;60.20;99515.34;5043834;28;8859;-74
2023/09/20 04:43:51;;;;;;;;;29.20;26.60;;;;;17.82;60.12;99514.41;5049949;28;8853;-74
2023/09/20 04:46:21;;;;;;;;;25.40;25.00;;;;;17.84;60.14;99515.19;5048174;28;8841;-74
2023/09/20 04:48:49;;;;;;;;;24.40;23.80;;;;;17.72;61.63;99522.03;5058609;28;8891;-75
2023/09/20 04:51:20;;;;;;;;;54.75;44.50;;;;;17.75;61.07;99516.53;5047466;28;8838;-74
2023/09/20 04:53:49;;;;;;;;;29.00;26.00;;;;;17.82;60.54;99513.56;5048908;28;8861;-74
2023/09/20 04:56:19;;;;;;;;;29.20;28.20;;;;;17.86;60.56;99518.63;5030885;28;8845;-75
2023/09/20 04:58:49;;;;;;;;;39.50;35.00;;;;;17.91;60.24;99518.38;5034479;28;8850;-73
2023/09/20 05:01:18;;;;;;;;;28.80;28.40;;;;;17.94;60.30;99523.56;5074582;28;8868;-73
2023/09/20 05:03:50;;;;;;;;;28.80;27.20;;;;;18.02;60.25;99523.16;5029677;28;9011;-72
2023/09/20 05:06:22;;;;;;;;;31.40;28.40;;;;;18.08;59.86;99528.19;5074042;28;8939;-72
2023/09/20 05:08:52;;;;;;;;;33.80;32.00;;;;;18.14;59.81;99527.88;5067131;28;8850;-74
2023/09/20 05:11:22;;;;;;;;;31.00;27.40;;;;;18.22;59.58;99530.97;5048974;28;8835;-73
2023/09/20 05:13:51;;;;;;;;;29.00;28.60;;;;;18.28;59.25;99529.78;5066523;28;8892;-75
2023/09/20 05:16:21;;;;;;;;;35.20;30.80;;;;;18.35;59.26;99529.38;5051945;28;8850;-72
2023/09/20 05:18:50;;;;;;;;;28.20;27.00;;;;;18.43;58.93;99528.13;5021828;28;8871;-71
2023/09/20 05:21:21;;;;;;;;;27.40;27.00;;;;;18.52;58.61;99533.81;5059863;28;8870;-78
2023/09/20 05:23:49;;;;;;;;;28.00;28.00;;;;;18.53;58.57;99535.53;5063496;28;8905;-77
2023/09/20 05:26:19;;;;;;;;;32.00;27.00;;;;;18.64;58.46;99537.59;5068292;28;8853;-77
2023/09/20 05:28:48;;;;;;;;;29.80;27.20;;;;;18.75;58.08;99540.53;5069085;28;8850;-77
2023/09/20 05:31:17;;;;;;;;;29.20;27.60;;;;;18.86;57.95;99547.13;5083996;28;8862;-78
2023/09/20 05:33:46;;;;;;;;;35.20;30.20;;;;;18.96;57.22;99544.78;5067493;28;8893;-78
2023/09/20 05:36:16;;;;;;;;;32.40;29.00;;;;;19.06;56.88;99549.50;5068958;28;8870;-77
2023/09/20 05:38:46;;;;;;;;;34.00;31.00;;;;;19.19;56.54;99554.16;5031090;28;8890;-77
2023/09/20 05:41:15;;;;;;;;;31.20;30.80;;;;;19.26;55.63;99551.03;5063286;28;8846;-77
2023/09/20 05:43:44;;;;;;;;;29.80;27.80;;;;;19.33;55.35;99559.56;5068461;28;8855;-77
2023/09/20 05:46:14;;;;;;;;;32.00;29.40;;;;;19.41;54.98;99551.13;5068451;28;8847;-76
2023/09/20 05:48:44;;;;;;;;;31.00;29.80;;;;;19.48;54.77;99556.00;5070957;28;8984;-76
2023/09/20 05:51:17;;;;;;;;;35.00;30.00;;;;;19.61;54.23;99555.31;5068918;28;8846;-75
2023/09/20 05:53:48;;;;;;;;;33.60;30.00;;;;;19.68;54.29;99562.00;5053626;28;8849;-77
2023/09/20 05:56:20;;;;;;;;;38.80;33.60;;;;;19.78;53.61;99563.16;5047114;28;8867;-77
2023/09/20 05:58:49;;;;;;;;;31.60;30.40;;;;;19.81;53.19;99563.00;5070592;28;8858;-79
2023/09/20 06:01:19;;;;;;;;;30.20;29.40;;;;;19.95;53.05;99575.50;5067146;28;8873;-77
2023/09/20 06:03:48;;;;;;;;;33.40;31.40;;;;;20.00;52.50;99573.44;5017007;28;9600;-72
2023/09/20 06:06:18;;;;;;;;;29.80;29.20;;;;;20.09;52.47;99575.56;5068042;28;8872;-72
2023/09/20 06:08:48;;;;;;;;;30.80;29.40;;;;;20.24;52.17;99578.28;5049007;28;8857;-73
2023/09/20 06:11:18;;;;;;;;;35.00;31.60;;;;;20.37;51.59;99576.59;5047663;28;8852;-73
2023/09/20 06:13:50;;;;;;;;;32.40;31.40;;;;;20.47;51.39;99583.06;5047442;28;8979;-72
2023/09/20 06:16:20;;;;;;;;;33.00;32.00;;;;;20.58;51.07;99581.56;5048083;28;8918;-73
2023/09/20 06:18:48;;;;;;;;;31.60;31.00;;;;;20.70;50.62;99582.59;5048187;28;8877;-73
2023/09/20 06:21:34;;;;;;;;;35.20;32.20;;;;;20.80;50.76;99570.38;5047850;28;8829;-73
2023/09/20 06:24:05;;;;;;;;;32.00;30.20;;;;;20.91;49.73;99580.38;5047758;28;8861;-73
2023/09/20 06:26:34;;;;;;;;;32.80;30.40;;;;;20.85;49.79;99582.47;5050727;28;8845;-75
2023/09/20 06:29:03;;;;;;;;;34.50;31.00;;;;;20.97;50.08;99588.03;5051195;28;8861;-72
2023/09/20 06:31:32;;;;;;;;;34.25;32.75;;;;;21.08;49.34;99588.19;5051631;28;8844;-71
2023/09/20 06:34:02;;;;;;;;;32.50;31.25;;;;;21.15;48.95;99594.03;5050974;28;8857;-74
2023/09/20 06:36:34;;;;;;;;;34.00;32.00;;;;;21.26;48.74;99591.53;5051041;28;8837;-72
2023/09/20 06:39:07;;;;;;;;;29.60;29.60;;;;;21.39;48.17;99592.44;5050098;28;9665;-74
2023/09/20 06:41:37;;;;;;;;;32.75;30.00;;;;;21.44;47.99;99598.31;5017255;28;8857;-73
2023/09/20 06:44:09;;;;;;;;;36.00;32.25;;;;;21.57;47.92;99606.41;5049382;28;8976;-75
2023/09/20 06:46:41;;;;;;;;;32.75;31.25;;;;;21.69;47.41;99602.06;5051215;28;8841;-72
2023/09/20 06:49:10;;;;;;;;;34.80;31.00;;;;;21.78;46.99;99601.47;5051131;28;8983;-73
2023/09/20 06:51:42;;;;;;;;;31.20;30.20;;;;;21.87;46.84;99600.00;5063453;28;8854;-74
2023/09/20 06:54:12;;;;;;;;;32.60;29.60;;;;;21.96;46.65;99606.56;5051376;28;8860;-75
2023/09/20 06:56:42;;;;;;;;;31.60;29.20;;;;;21.98;46.28;99600.13;5051063;28;8845;-71
2023/09/20 06:59:11;;;;;;;;;32.00;29.40;;;;;22.08;46.21;99608.41;5051396;28;8913;-73
2023/09/20 07:01:41;;;;;;;;;26.00;24.60;;;;;22.20;45.43;99599.53;5051747;28;8837;-72
2023/09/20 07:04:10;;;;;;;;;24.40;24.20;;;;;22.28;45.37;99600.84;5051422;28;9595;-75
2023/09/20 07:06:40;;;;;;;;;24.60;22.20;;;;;22.33;44.66;99609.41;5051931;28;8857;-72
2023/09/20 07:09:09;;;;;;;;;23.80;23.40;;;;;22.36;44.27;99604.72;5051271;28;8942;-73
2023/09/20 07:11:39;;;;;;;;;27.00;25.80;;;;;22.48;44.01;99605.66;5017196;28;8873;-73
2023/09/20 07:14:11;;;;;;;;;18.80;18.40;;;;;22.53;43.53;99603.53;5000656;28;8861;-73
2023/09/20 07:16:40;;;;;;;;;19.60;19.60;;;;;22.63;42.95;99600.22;5051456;28;8845;-72
2023/09/20 07:19:13;;;;;;;;;16.60;16.20;;;;;22.71;42.57;99608.56;5050479;28;8841;-73
2023/09/20 07:21:41;;;;;;;;;17.20;17.20;;;;;22.85;42.05;99613.81;5049591;28;8863;-73
2023/09/20 07:24:12;;;;;;;;;18.60;17.60;;;;;22.98;41.70;99617.34;5050895;28;8849;-72
2023/09/20 07:26:44;;;;;;;;;15.00;14.60;;;;;23.13;41.57;99611.84;5049606;28;8849;-72
2023/09/20 07:29:14;;;;;;;;;14.00;14.00;;;;;23.21;41.07;99613.97;5051083;28;8853;-72
2023/09/20 07:31:45;;;;;;;;;12.20;11.60;;;;;23.24;40.62;99611.06;5050652;28;8841;-72
2023/09/20 07:34:16;;;;;;;;;12.60;12.20;;;;;23.31;40.57;99615.00;5050698;28;8849;-71
2023/09/20 07:36:49;;;;;;;;;11.00;11.00;;;;;23.27;39.96;99622.41;5050487;28;8971;-73
2023/09/20 07:39:21;;;;;;;;;10.00;10.00;;;;;23.34;40.09;99625.53;5050768;28;8965;-76
2023/09/20 07:41:55;;;;;;;;;13.00;12.00;;;;;23.40;40.25;99627.75;5050631;28;8841;-72
2023/09/20 07:44:24;;;;;;;;;13.00;11.80;;;;;23.52;39.52;99620.66;5066021;28;8991;-73
2023/09/20 07:46:53;;;;;;;;;11.20;11.00;;;;;23.56;39.55;99623.00;5050498;28;8856;-74
2023/09/20 07:49:22;;;;;;;;;12.20;12.20;;;;;23.68;39.79;99617.69;5050325;28;8875;-74
2023/09/20 07:51:54;;;;;;;;;10.60;9.80;;;;;23.36;39.48;99613.69;5050144;28;8861;-73
2023/09/20 07:54:23;;;;;;;;;10.20;10.00;;;;;23.32;39.78;99620.25;5050604;28;8887;-73
2023/09/20 07:56:54;;;;;;;;;9.40;9.40;;;;;23.49;40.14;99616.34;5050550;28;9023;-72
2023/09/20 07:59:26;;;;;;;;;12.20;12.20;;;;;23.56;39.50;99617.63;5050450;28;9634;-72
2023/09/20 08:01:55;;;;;;;;;11.20;10.80;;;;;23.65;39.56;99615.22;5050265;28;8845;-70
2023/09/20 08:04:24;;;;;;;;;9.60;9.60;;;;;23.79;38.92;99617.75;5050326;28;8948;-72
2023/09/20 08:06:53;;;;;;;;;6.00;6.00;;;;;23.84;38.19;99610.19;5061092;28;8873;-71
2023/09/20 08:09:23;;;;;;;;;5.80;5.80;;;;;23.89;38.45;99607.16;5070239;28;8858;-72
2023/09/20 08:11:52;;;;;;;;;5.00;5.00;;;;;23.86;38.00;99604.69;5069935;28;8830;-72
2023/09/20 08:14:22;;;;;;;;;6.00;6.00;;;;;23.95;38.54;99607.53;5069445;28;8884;-71
2023/09/20 08:19:37;;;;;;;;;5.60;5.60;;;;;24.02;37.74;99605.25;5049978;28;8869;-73
2023/09/20 08:22:06;;;;;;;;;6.40;5.80;;;;;24.19;38.04;99608.50;5049856;28;8929;-75
2023/09/20 09:00:51;;;;;;;;;7.80;7.00;;;;;24.34;37.24;99599.25;5048737;28;8935;-73
2023/09/20 09:03:22;;;;;;;;;5.80;5.80;;;;;24.42;37.17;99596.81;5048717;28;8895;-72
2023/09/20 09:05:53;;;;;;;;;7.60;6.80;;;;;24.43;37.07;99601.22;5014581;28;8857;-72
2023/09/20 09:08:22;;;;;;;;;6.20;6.20;;;;;24.40;36.63;99601.47;5048816;28;8899;-75
2023/09/20 09:10:51;;;;;;;;;6.80;5.60;;;;;24.41;36.43;99597.78;5048497;28;8931;-71
2023/09/20 09:13:21;;;;;;;;;7.60;7.00;;;;;24.47;36.16;99596.44;5046246;28;8837;-72
2023/09/20 09:15:51;;;;;;;;;7.00;6.00;;;;;24.51;36.45;99598.78;5013190;28;8984;-72
2023/09/20 09:18:22;;;;;;;;;5.80;5.80;;;;;24.28;36.49;99602.41;5048792;28;8880;-73
2023/09/20 09:20:53;;;;;;;;;7.40;7.40;;;;;23.39;37.94;99600.06;5048460;28;8845;-73
2023/09/20 09:23:33;;;;;;;;;8.40;7.80;;;;;23.62;37.85;99596.66;5048360;28;8861;-71
2023/09/20 09:26:02;;;;;;;;;8.40;7.60;;;;;23.77;37.51;99599.06;5048429;28;8861;-73
2023/09/20 09:28:32;;;;;;;;;3.20;3.00;;;;;23.97;36.85;99599.38;5048542;28;8869;-73
2023/09/20 09:31:01;;;;;;;;;5.00;5.00;;;;;24.09;36.66;99581.47;5048175;28;8880;-72
2023/09/20 09:33:32;;;;;;;;;5.20;5.20;;;;;24.18;36.08;99591.53;5048443;28;9622;-72
2023/09/20 09:36:01;;;;;;;;;3.00;3.00;;;;;24.11;35.98;99588.44;5048431;28;9034;-73
2023/09/20 09:38:33;;;;;;;;;11.40;11.00;;;;;24.02;36.57;99593.63;5029414;28;9694;-73
2023/09/20 09:41:03;;;;;;;;;7.80;7.80;;;;;24.14;36.65;99598.13;5048145;28;8892;-72
2023/09/20 09:43:32;;;;;;;;;4.60;4.60;;;;;24.19;36.58;99592.38;5048197;28;8895;-72
2023/09/20 09:46:06;;;;;;;;;7.00;7.00;;;;;24.01;35.82;99589.25;5046133;28;8868;-73
2023/09/20 09:48:38;;;;;;;;;9.60;9.60;;;;;24.14;36.51;99587.38;5048309;28;8865;-73
2023/09/20 09:51:08;;;;;;;;;3.80;2.80;;;;;24.23;35.58;99583.13;5048067;28;8995;-73
2023/09/20 09:53:39;;;;;;;;;4.80;4.80;;;;;24.39;35.35;99572.88;5047866;28;8960;-73
2023/09/20 09:56:09;;;;;;;;;3.60;3.60;;;;;24.32;35.59;99577.00;5048233;28;8884;-74
2023/09/20 09:58:38;;;;;;;;;3.00;2.80;;;;;24.48;35.62;99571.31;5048514;28;8950;-73
2023/09/20 10:01:10;;;;;;;;;2.80;2.80;;;;;24.56;34.83;99566.16;5046470;28;8845;-73
2023/09/20 10:03:47;;;;;;;;;2.00;2.00;;;;;24.67;34.54;99554.56;5048085;28;8865;-73
2023/09/20 10:06:25;;;;;;;;;2.80;2.80;;;;;24.78;34.09;99551.06;5048042;28;8880;-72
2023/09/20 10:08:54;;;;;;;;;3.60;3.60;;;;;24.73;34.05;99544.19;5047888;28;8877;-72
2023/09/20 10:11:26;;;;;;;;;3.80;3.80;;;;;24.74;34.35;99543.22;5013434;28;8868;-74
2023/09/20 10:13:56;;;;;;;;;3.20;3.20;;;;;24.81;33.97;99545.41;5047731;28;8869;-73
2023/09/20 10:16:25;;;;;;;;;3.00;2.40;;;;;24.83;33.61;99549.72;5047758;28;8955;-72
2023/09/20 10:18:58;;;;;;;;;2.80;2.80;;;;;24.93;33.54;99544.44;5047714;28;8888;-73
2023/09/20 10:21:31;;;;;;;;;2.20;2.20;;;;;24.99;33.47;99543.94;5046419;28;8922;-73
2023/09/20 10:24:05;;;;;;;;;3.20;2.80;;;;;25.13;34.38;99535.59;5045261;28;8954;-73
2023/09/20 10:26:37;;;;;;;;;2.20;2.20;;;;;25.13;33.34;99529.34;5045370;28;8901;-72
2023/09/20 10:29:23;;;;;;;;;3.00;3.00;;;;;25.29;33.07;99531.63;5045564;28;8978;-72
2023/09/20 10:32:07;;;;;;;;;3.20;3.20;;;;;25.32;33.01;99523.31;5012875;28;8846;-73
2023/09/20 10:34:41;;;;;;;;;3.80;3.00;;;;;25.11;32.42;99531.31;5062010;28;8896;-73
2023/09/20 10:37:10;;;;;;;;;3.80;3.80;;;;;25.22;33.39;99525.91;5045360;28;8932;-73
2023/09/20 10:39:42;;;;;;;;;3.40;3.40;;;;;25.33;32.89;99532.28;5045044;28;8969;-73
2023/09/20 10:42:13;;;;;;;;;3.40;3.40;;;;;25.31;32.49;99538.59;5044924;28;8989;-72
2023/09/20 10:44:43;;;;;;;;;3.40;2.80;;;;;25.38;32.75;99546.19;5044506;28;8892;-73
2023/09/20 10:47:16;;;;;;;;;3.20;3.20;;;;;25.38;32.53;99546.19;5044887;28;8858;-74
2023/09/20 10:49:52;;;;;;;;;2.80;2.80;;;;;25.55;32.43;99550.16;5045307;28;8830;-72
2023/09/20 10:52:56;;;;;;;;;4.60;4.00;;;;;25.80;31.78;99554.34;5044742;28;8890;-72
2023/09/20 10:55:43;;;;;;;;;5.20;4.00;;;;;25.89;31.57;99540.09;5046303;28;8872;-72
2023/09/20 10:58:14;;;;;;;;;3.20;3.20;;;;;25.76;31.67;99534.91;5047642;28;8841;-72
2023/09/20 11:00:44;;;;;;;;;5.20;5.20;;;;;25.87;32.15;99533.97;5047450;28;8857;-72
2023/09/20 11:03:18;;;;;;;;;3.80;3.80;;;;;25.90;31.36;99526.50;5047363;28;8853;-73
2023/09/20 11:05:48;;;;;;;;;4.20;4.00;;;;;26.05;31.36;99529.72;5047785;28;8844;-72
2023/09/20 11:08:18;;;;;;;;;2.20;2.20;;;;;26.05;31.44;99529.72;5047351;28;8941;-72
2023/09/20 11:10:47;;;;;;;;;5.40;5.40;;;;;26.21;31.19;99520.31;5028336;28;8845;-72
2023/09/20 11:13:19;;;;;;;;;3.40;3.40;;;;;26.26;31.07;99518.91;5049270;28;8922;-72
2023/09/20 11:15:48;;;;;;;;;1.40;1.20;;;;;26.40;30.74;99520.41;5031860;28;8882;-72
2023/09/20 11:18:19;;;;;;;;;2.00;2.00;;;;;26.48;29.87;99511.69;5049773;28;8868;-73
2023/09/20 11:20:50;;;;;;;;;2.20;2.20;;;;;26.58;29.55;99503.63;5050731;28;8885;-72
2023/09/20 11:23:19;;;;;;;;;4.80;4.80;;;;;26.67;29.93;99494.72;5050505;28;8841;-73
2023/09/20 11:25:50;;;;;;;;;4.60;4.60;;;;;26.73;30.04;99499.56;5050647;28;8930;-72
2023/09/20 11:28:19;;;;;;;;;3.00;3.00;;;;;26.94;29.83;99498.63;5049347;28;8837;-73
2023/09/20 11:30:51;;;;;;;;;3.20;3.20;;;;;27.09;29.38;99499.94;5050739;28;8892;-72
2023/09/20 11:33:28;;;;;;;;;4.00;3.00;;;;;27.27;29.24;99501.94;5048530;28;8865;-73
2023/09/20 11:35:59;;;;;;;;;3.40;3.20;;;;;27.33;29.03;99487.91;5050780;28;8893;-73
2023/09/20 11:38:28;;;;;;;;;9.80;8.20;;;;;26.68;29.78;99485.63;5050283;28;8881;-71
2023/09/20 11:40:59;;;;;;;;;3.80;3.80;;;;;26.81;29.41;99485.38;5050476;28;8891;-73
2023/09/20 11:43:30;;;;;;;;;5.60;5.60;;;;;26.97;29.39;99469.53;5051271;28;8845;-75
2023/09/20 11:45:59;;;;;;;;;3.00;3.00;;;;;27.16;28.81;99468.72;5050750;28;8888;-72
2023/09/20 11:48:30;;;;;;;;;4.40;4.40;;;;;27.34;28.79;99465.28;5050466;28;8919;-71
2023/09/20 11:51:02;;;;;;;;;10.00;8.20;;;;;27.52;28.60;99458.19;5050089;28;8861;-71
2023/09/20 11:53:33;;;;;;;;;6.20;4.80;;;;;27.59;28.85;99456.66;5050138;28;9626;-73
2023/09/20 11:56:03;;;;;;;;;4.00;4.00;;;;;27.81;27.86;99449.19;5047712;28;8854;-76
2023/09/20 11:58:34;;;;;;;;;4.00;4.00;;;;;28.13;27.66;99454.25;5048283;28;9636;-73
2023/09/20 12:01:06;;;;;;;;;3.80;3.80;;;;;28.20;27.53;99457.22;5030854;28;8988;-72
2023/09/20 12:03:36;;;;;;;;;3.80;3.80;;;;;28.47;27.43;99453.66;5047385;28;8854;-73
2023/09/20 12:06:08;;;;;;;;;4.20;4.20;;;;;28.30;27.34;99449.91;5047089;28;8948;-73
2023/09/20 12:08:37;;;;;;;;;3.40;3.40;;;;;27.33;27.89;99455.50;5047972;28;9556;-74
2023/09/20 12:11:07;;;;;;;;;2.80;2.80;;;;;27.02;28.46;99461.03;5047144;28;9639;-72
2023/09/20 12:13:36;;;;;;;;;3.00;3.00;;;;;27.40;28.63;99460.19;5047279;28;8846;-73
2023/09/20 12:16:05;;;;;;;;;9.00;9.00;;;;;27.89;28.26;99446.59;5046963;28;8955;-73
2023/09/20 12:18:34;;;;;;;;;6.00;6.00;;;;;28.28;27.53;99441.09;5046977;28;9039;-73
2023/09/20 12:21:03;;;;;;;;;3.00;3.00;;;;;28.75;26.37;99442.88;5047119;28;9065;-73
2023/09/20 12:23:35;;;;;;;;;4.20;4.00;;;;;29.09;26.13;99437.63;5046759;28;8988;-72